Portada
METAR-TAF:

METAR-TAF

Aeroports :

Aeroport Internacional Murtala Mohammed

Lagos, Nigèria

latitud: 06-35N, longitud: 003-20E, altitud: 40 m

Observació

L'informe es va fer fa 41 minuts, a les 16:00 UTC
Vent 12 kt del Sud/Sud-Oest, variant entre Sud i Oest/Sud-Oest
Temperatura 33°C
Humitat 63%
Pressió 1009 hPa
Visibilitat: 4500 m
calitja

METAR: DNMM 181600Z 20012KT 180V240 4500 HZ NSC 33/25 Q1009 NOSIG

Hora: 17:41 (16:41 UTC)

Pronòstic

L'informe es va fer fa 5 hores i 41 minuts, a les 11:00 UTC
Pronòstic vàlid del 18 a les 12 UTC al 19 a les 18 UTC
Vent 2 kt amb direcció variable
Visibilitat: 7000 m
Núvols disperses a una alçada de 1400 ft
calitja
Temporalment
l' 19 a les 05 UTC al 19 a les 08 UTC
Visibilitat: 3500 m

TAF: DNMM 181100Z 1812/1918 25010KT HZ SCT014 BECGM 1816/1818 VRB02KT 7000 NSW TEMPO 1905/1908 3500

Observacions i pronòstics meteorològics de més de 4000 aeroports (METAR i TAF).

Les estacions disponibles són els punts grocs i vermells al mapa.

Posi el ratolí al punt desitjat per veure el nom de l'estació.

Feu clic per veure les observacions i els pronòstics meteorològics.

Per canviar el mapa: feu clic els botons verds amb una creu de color negre per apropar; al botó verd amb un guió per allunyar la imatge; o en les fletxes verdes per a mapes adjacents.


METAR-TAF: